sensor_id;sensor_type;location;lat;lon;timestamp;pressure;altitude;pressure_sealevel;temperature;humidity
21879;BME280;27908;42.708;23.278;2022-11-02T00:58:26;50996.97;;;7.74;100.00
21879;BME280;27908;42.708;23.278;2022-11-02T01:00:51;50298.38;;;7.64;100.00
21879;BME280;27908;42.708;23.278;2022-11-02T01:03:17;50015.88;;;7.83;100.00
21879;BME280;27908;42.708;23.278;2022-11-02T01:05:42;49895.91;;;7.91;100.00
21879;BME280;27908;42.708;23.278;2022-11-02T01:08:08;49787.09;;;7.94;100.00
21879;BME280;27908;42.708;23.278;2022-11-02T01:10:33;49324.31;;;7.97;100.00
21879;BME280;27908;42.708;23.278;2022-11-02T01:13:00;48986.78;;;8.14;100.00
21879;BME280;27908;42.708;23.278;2022-11-02T01:15:25;48894.41;;;8.16;100.00
21879;BME280;27908;42.708;23.278;2022-11-02T01:17:51;48872.31;;;8.26;100.00
21879;BME280;27908;42.708;23.278;2022-11-02T01:20:16;49596.97;;;8.15;100.00
21879;BME280;27908;42.708;23.278;2022-11-02T01:22:42;49568.50;;;8.11;100.00
21879;BME280;27908;42.708;23.278;2022-11-02T01:25:07;49843.53;;;8.26;100.00
21879;BME280;27908;42.708;23.278;2022-11-02T01:27:33;50377.75;;;8.11;100.00
21879;BME280;27908;42.708;23.278;2022-11-02T01:29:58;50810.75;;;7.90;100.00
21879;BME280;27908;42.708;23.278;2022-11-02T01:32:24;50731.16;;;7.89;100.00
21879;BME280;27908;42.708;23.278;2022-11-02T01:34:49;50617.78;;;7.89;100.00
21879;BME280;27908;42.708;23.278;2022-11-02T01:37:14;50799.94;;;7.68;100.00
21879;BME280;27908;42.708;23.278;2022-11-02T01:39:40;50667.66;;;7.52;100.00
21879;BME280;27908;42.708;23.278;2022-11-02T01:42:19;50587.59;;;7.68;100.00
21879;BME280;27908;42.708;23.278;2022-11-02T01:44:45;50625.03;;;7.55;100.00
21879;BME280;27908;42.708;23.278;2022-11-02T01:47:31;50299.72;;;7.35;100.00
21879;BME280;27908;42.708;23.278;2022-11-02T01:50:05;49782.25;;;7.47;100.00
21879;BME280;27908;42.708;23.278;2022-11-02T01:52:34;49481.00;;;7.43;100.00
21879;BME280;27908;42.708;23.278;2022-11-02T01:55:05;49288.19;;;7.52;100.00
21879;BME280;27908;42.708;23.278;2022-11-02T01:57:34;49421.94;;;7.55;100.00
21879;BME280;27908;42.708;23.278;2022-11-02T02:00:10;49267.97;;;7.61;100.00
21879;BME280;27908;42.708;23.278;2022-11-02T02:02:41;49453.09;;;7.46;100.00
21879;BME280;27908;42.708;23.278;2022-11-02T02:05:09;48859.69;;;7.43;100.00
21879;BME280;27908;42.708;23.278;2022-11-02T02:07:38;48046.81;;;7.41;100.00
21879;BME280;27908;42.708;23.278;2022-11-02T02:10:05;47660.34;;;7.21;100.00
21879;BME280;27908;42.708;23.278;2022-11-02T02:12:33;47532.78;;;7.39;100.00
21879;BME280;27908;42.708;23.278;2022-11-02T02:15:00;47554.59;;;7.34;100.00
21879;BME280;27908;42.708;23.278;2022-11-02T02:31:02;45681.56;;;7.23;100.00
21879;BME280;27908;42.708;23.278;2022-11-02T02:34:03;43868.28;;;7.02;100.00
21879;BME280;27908;42.708;23.278;2022-11-02T02:39:19;42497.72;;;7.21;100.00
21879;BME280;27908;42.708;23.278;2022-11-02T02:41:59;41496.88;;;7.28;100.00
21879;BME280;27908;42.708;23.278;2022-11-02T02:44:30;41373.38;;;7.28;100.00
21879;BME280;27908;42.708;23.278;2022-11-02T02:47:23;41038.25;;;7.28;100.00
21879;BME280;27908;42.708;23.278;2022-11-02T02:49:58;40918.75;;;7.22;100.00
21879;BME280;27908;42.708;23.278;2022-11-02T02:52:27;40191.31;;;7.00;100.00
21879;BME280;27908;42.708;23.278;2022-11-02T02:54:57;38770.75;;;7.03;100.00
21879;BME280;27908;42.708;23.278;2022-11-02T02:57:25;38317.34;;;7.23;100.00
21879;BME280;27908;42.708;23.278;2022-11-02T02:59:51;37820.25;;;7.29;100.00
21879;BME280;27908;42.708;23.278;2022-11-02T03:02:22;37643.81;;;7.25;100.00
21879;BME280;27908;42.708;23.278;2022-11-02T03:04:49;37773.91;;;7.32;100.00
21879;BME280;27908;42.708;23.278;2022-11-02T03:07:19;37385.06;;;7.38;100.00
21879;BME280;27908;42.708;23.278;2022-11-02T03:15:25;37771.63;;;7.11;100.00
21879;BME280;27908;42.708;23.278;2022-11-02T03:23:37;39238.34;;;7.10;100.00
21879;BME280;27908;42.708;23.278;2022-11-02T03:31:35;40381.41;;;6.98;100.00
21879;BME280;27908;42.708;23.278;2022-11-02T03:34:25;40270.03;;;7.01;100.00
21879;BME280;27908;42.708;23.278;2022-11-02T03:37:01;40248.00;;;7.02;100.00
21879;BME280;27908;42.708;23.278;2022-11-02T03:39:37;40258.41;;;7.03;100.00
21879;BME280;27908;42.708;23.278;2022-11-02T03:42:06;40339.44;;;6.92;100.00
21879;BME280;27908;42.708;23.278;2022-11-02T03:44:37;40494.50;;;6.86;100.00
21879;BME280;27908;42.708;23.278;2022-11-02T03:47:03;40239.13;;;6.77;100.00
21879;BME280;27908;42.708;23.278;2022-11-02T03:49:31;38715.31;;;6.75;100.00
21879;BME280;27908;42.708;23.278;2022-11-02T03:51:59;38627.78;;;6.56;100.00
21879;BME280;27908;42.708;23.278;2022-11-02T03:54:47;36697.19;;;6.57;100.00
21879;BME280;27908;42.708;23.278;2022-11-02T03:57:21;35532.31;;;6.64;100.00
21879;BME280;27908;42.708;23.278;2022-11-02T03:59:48;34673.59;;;6.70;100.00
21879;BME280;27908;42.708;23.278;2022-11-02T04:02:14;34738.44;;;6.55;100.00
21879;BME280;27908;42.708;23.278;2022-11-02T04:04:49;35134.88;;;6.50;100.00
21879;BME280;27908;42.708;23.278;2022-11-02T04:07:18;34276.41;;;6.33;100.00
21879;BME280;27908;42.708;23.278;2022-11-02T04:09:44;33143.22;;;6.46;100.00
21879;BME280;27908;42.708;23.278;2022-11-02T04:12:10;31952.47;;;6.35;100.00
21879;BME280;27908;42.708;23.278;2022-11-02T04:14:54;27636.78;;;6.39;100.00
21879;BME280;27908;42.708;23.278;2022-11-02T04:17:19;24583.13;;;6.43;100.00
21879;BME280;27908;42.708;23.278;2022-11-02T04:20:03;22480.25;;;6.61;100.00
21879;BME280;27908;42.708;23.278;2022-11-02T04:22:29;22137.69;;;6.70;100.00
21879;BME280;27908;42.708;23.278;2022-11-02T04:25:15;24517.03;;;6.60;100.00
21879;BME280;27908;42.708;23.278;2022-11-02T04:27:46;23993.38;;;6.67;100.00
21879;BME280;27908;42.708;23.278;2022-11-02T04:30:14;24083.34;;;6.73;100.00
21879;BME280;27908;42.708;23.278;2022-11-02T04:32:41;26289.19;;;6.60;100.00
21879;BME280;27908;42.708;23.278;2022-11-02T04:35:26;26803.72;;;6.67;100.00
21879;BME280;27908;42.708;23.278;2022-11-02T04:37:52;27322.78;;;6.72;100.00
21879;BME280;27908;42.708;23.278;2022-11-02T04:40:35;28933.41;;;6.61;100.00
21879;BME280;27908;42.708;23.278;2022-11-02T04:43:01;29142.16;;;6.62;100.00
21879;BME280;27908;42.708;23.278;2022-11-02T04:45:26;30043.25;;;6.46;100.00
21879;BME280;27908;42.708;23.278;2022-11-02T04:47:52;30120.81;;;6.46;100.00
21879;BME280;27908;42.708;23.278;2022-11-02T04:50:23;29773.53;;;6.54;100.00
21879;BME280;27908;42.708;23.278;2022-11-02T04:53:00;30287.38;;;6.48;100.00
21879;BME280;27908;42.708;23.278;2022-11-02T04:55:26;29655.75;;;6.49;100.00
21879;BME280;27908;42.708;23.278;2022-11-02T04:57:52;28783.53;;;6.62;100.00
21879;BME280;27908;42.708;23.278;2022-11-02T05:00:19;28182.34;;;6.59;100.00
21879;BME280;27908;42.708;23.278;2022-11-02T05:02:46;27857.59;;;6.73;100.00
21879;BME280;27908;42.708;23.278;2022-11-02T05:05:12;27499.69;;;6.75;100.00
21879;BME280;27908;42.708;23.278;2022-11-02T05:07:37;26815.91;;;6.77;100.00
21879;BME280;27908;42.708;23.278;2022-11-02T05:10:03;27622.97;;;6.70;100.00
21879;BME280;27908;42.708;23.278;2022-11-02T05:12:29;27234.13;;;6.70;100.00
21879;BME280;27908;42.708;23.278;2022-11-02T05:14:54;28532.16;;;6.17;100.00
21879;BME280;27908;42.708;23.278;2022-11-02T05:17:19;28270.94;;;6.72;100.00
21879;BME280;27908;42.708;23.278;2022-11-02T05:19:45;28539.19;;;6.76;100.00
21879;BME280;27908;42.708;23.278;2022-11-02T05:22:10;29657.78;;;6.64;100.00
21879;BME280;27908;42.708;23.278;2022-11-02T05:24:35;30291.00;;;6.55;100.00
21879;BME280;27908;42.708;23.278;2022-11-02T05:27:01;29527.31;;;6.48;100.00
21879;BME280;27908;42.708;23.278;2022-11-02T05:29:27;29473.41;;;6.62;100.00
21879;BME280;27908;42.708;23.278;2022-11-02T05:31:52;28956.47;;;6.72;100.00
21879;BME280;27908;42.708;23.278;2022-11-02T05:34:17;28112.81;;;6.77;100.00
21879;BME280;27908;42.708;23.278;2022-11-02T05:36:43;28348.69;;;6.77;100.00
21879;BME280;27908;42.708;23.278;2022-11-02T05:39:08;28896.47;;;6.78;100.00
21879;BME280;27908;42.708;23.278;2022-11-02T05:41:34;28327.63;;;6.86;100.00
21879;BME280;27908;42.708;23.278;2022-11-02T05:43:59;27867.09;;;6.94;100.00
21879;BME280;27908;42.708;23.278;2022-11-02T05:46:25;27616.31;;;6.95;100.00
21879;BME280;27908;42.708;23.278;2022-11-02T05:48:50;28057.16;;;6.93;100.00
21879;BME280;27908;42.708;23.278;2022-11-02T05:51:16;27382.06;;;6.93;100.00
21879;BME280;27908;42.708;23.278;2022-11-02T05:53:41;26751.47;;;7.14;100.00
21879;BME280;27908;42.708;23.278;2022-11-02T05:56:08;26277.06;;;7.26;100.00
21879;BME280;27908;42.708;23.278;2022-11-02T05:58:34;26006.13;;;7.33;100.00
21879;BME280;27908;42.708;23.278;2022-11-02T06:01:00;25461.81;;;7.46;100.00
21879;BME280;27908;42.708;23.278;2022-11-02T06:03:27;25356.56;;;7.46;100.00
21879;BME280;27908;42.708;23.278;2022-11-02T06:06:00;24419.50;;;7.57;100.00
21879;BME280;27908;42.708;23.278;2022-11-02T06:08:26;24401.88;;;7.70;100.00
21879;BME280;27908;42.708;23.278;2022-11-02T06:10:52;23922.91;;;7.72;100.00
21879;BME280;27908;42.708;23.278;2022-11-02T06:13:17;23202.00;;;7.91;100.00
21879;BME280;27908;42.708;23.278;2022-11-02T06:15:42;22909.31;;;8.08;100.00
21879;BME280;27908;42.708;23.278;2022-11-02T06:18:08;23316.84;;;8.23;100.00
21879;BME280;27908;42.708;23.278;2022-11-02T06:20:33;23487.81;;;8.37;100.00
21879;BME280;27908;42.708;23.278;2022-11-02T06:22:59;23703.56;;;8.49;100.00
21879;BME280;27908;42.708;23.278;2022-11-02T06:25:25;23742.13;;;8.58;100.00
21879;BME280;27908;42.708;23.278;2022-11-02T06:27:54;24269.81;;;8.77;100.00
21879;BME280;27908;42.708;23.278;2022-11-02T06:30:24;24552.66;;;8.92;100.00
21879;BME280;27908;42.708;23.278;2022-11-02T06:32:52;25791.06;;;8.99;100.00
21879;BME280;27908;42.708;23.278;2022-11-02T06:35:19;25820.22;;;9.15;100.00
21879;BME280;27908;42.708;23.278;2022-11-02T06:37:45;26682.25;;;9.29;100.00
21879;BME280;27908;42.708;23.278;2022-11-02T06:40:11;27702.00;;;9.45;100.00
21879;BME280;27908;42.708;23.278;2022-11-02T06:42:38;28859.59;;;9.57;100.00
21879;BME280;27908;42.708;23.278;2022-11-02T06:45:04;30040.50;;;9.69;100.00
21879;BME280;27908;42.708;23.278;2022-11-02T06:47:32;30604.97;;;9.78;100.00
21879;BME280;27908;42.708;23.278;2022-11-02T06:49:58;29607.59;;;9.97;100.00
21879;BME280;27908;42.708;23.278;2022-11-02T06:52:25;30117.13;;;10.07;100.00
21879;BME280;27908;42.708;23.278;2022-11-02T06:54:51;30237.31;;;10.26;100.00
21879;BME280;27908;42.708;23.278;2022-11-02T06:57:16;31396.19;;;10.45;100.00
21879;BME280;27908;42.708;23.278;2022-11-02T06:59:41;32030.50;;;10.60;100.00
21879;BME280;27908;42.708;23.278;2022-11-02T07:02:08;33046.47;;;10.69;100.00
21879;BME280;27908;42.708;23.278;2022-11-02T07:04:33;33688.09;;;10.86;100.00
21879;BME280;27908;42.708;23.278;2022-11-02T07:06:58;35403.25;;;10.90;100.00
21879;BME280;27908;42.708;23.278;2022-11-02T07:09:24;35532.41;;;11.07;100.00
21879;BME280;27908;42.708;23.278;2022-11-02T07:11:49;36428.13;;;11.15;100.00
21879;BME280;27908;42.708;23.278;2022-11-02T07:14:14;36576.41;;;11.26;100.00
21879;BME280;27908;42.708;23.278;2022-11-02T07:16:40;36997.69;;;11.31;100.00
21879;BME280;27908;42.708;23.278;2022-11-02T07:19:05;37320.69;;;11.41;100.00
21879;BME280;27908;42.708;23.278;2022-11-02T07:21:31;38434.16;;;11.59;100.00
21879;BME280;27908;42.708;23.278;2022-11-02T07:23:56;38998.34;;;11.69;100.00
21879;BME280;27908;42.708;23.278;2022-11-02T07:26:21;39805.78;;;11.77;99.66
21879;BME280;27908;42.708;23.278;2022-11-02T07:28:47;40105.97;;;11.90;99.50
21879;BME280;27908;42.708;23.278;2022-11-02T07:31:12;40744.28;;;12.00;98.34
21879;BME280;27908;42.708;23.278;2022-11-02T07:33:38;41826.09;;;12.07;96.53
21879;BME280;27908;42.708;23.278;2022-11-02T07:36:03;42699.22;;;12.09;95.60
21879;BME280;27908;42.708;23.278;2022-11-02T07:38:29;42726.25;;;12.23;95.77
21879;BME280;27908;42.708;23.278;2022-11-02T07:40:55;43183.72;;;12.34;94.60
21879;BME280;27908;42.708;23.278;2022-11-02T07:43:20;43360.50;;;12.46;94.60
21879;BME280;27908;42.708;23.278;2022-11-02T07:45:46;43698.19;;;12.53;93.93
21879;BME280;27908;42.708;23.278;2022-11-02T07:48:11;44768.31;;;12.59;91.37
21879;BME280;27908;42.708;23.278;2022-11-02T07:50:37;44883.78;;;12.74;91.05
21879;BME280;27908;42.708;23.278;2022-11-02T07:53:02;45303.38;;;12.87;90.27
21879;BME280;27908;42.708;23.278;2022-11-02T07:55:29;45727.16;;;12.96;89.47
21879;BME280;27908;42.708;23.278;2022-11-02T07:58:09;45874.59;;;13.13;88.42
21879;BME280;27908;42.708;23.278;2022-11-02T08:00:37;46095.63;;;13.25;88.73
21879;BME280;27908;42.708;23.278;2022-11-02T08:03:04;46466.81;;;13.41;86.88
21879;BME280;27908;42.708;23.278;2022-11-02T08:05:33;46481.28;;;13.57;86.93
21879;BME280;27908;42.708;23.278;2022-11-02T08:08:00;46791.16;;;13.69;86.08
21879;BME280;27908;42.708;23.278;2022-11-02T08:10:27;46860.28;;;13.83;86.19
21879;BME280;27908;42.708;23.278;2022-11-02T08:12:53;47177.38;;;13.97;84.57
21879;BME280;27908;42.708;23.278;2022-11-02T08:15:19;47405.69;;;14.12;84.03
21879;BME280;27908;42.708;23.278;2022-11-02T08:17:44;47752.31;;;14.27;82.91
21879;BME280;27908;42.708;23.278;2022-11-02T08:20:10;47982.78;;;14.35;82.02
21879;BME280;27908;42.708;23.278;2022-11-02T08:22:37;48230.63;;;14.55;81.03
21879;BME280;27908;42.708;23.278;2022-11-02T08:25:03;48044.06;;;14.71;81.92
21879;BME280;27908;42.708;23.278;2022-11-02T08:27:28;48381.00;;;14.87;79.60
21879;BME280;27908;42.708;23.278;2022-11-02T08:29:54;48469.03;;;15.11;78.72
21879;BME280;27908;42.708;23.278;2022-11-02T08:32:19;49002.56;;;15.26;77.11
21879;BME280;27908;42.708;23.278;2022-11-02T08:34:45;49313.13;;;15.36;76.14
21879;BME280;27908;42.708;23.278;2022-11-02T08:37:10;49510.63;;;15.43;76.21
21879;BME280;27908;42.708;23.278;2022-11-02T08:39:36;49842.53;;;15.58;75.74
21879;BME280;27908;42.708;23.278;2022-11-02T08:42:01;49793.31;;;15.61;75.56
21879;BME280;27908;42.708;23.278;2022-11-02T08:44:26;50116.97;;;15.90;73.74
21879;BME280;27908;42.708;23.278;2022-11-02T08:46:54;50296.34;;;16.06;73.39
21879;BME280;27908;42.708;23.278;2022-11-02T08:49:19;50493.03;;;16.21;72.80
21879;BME280;27908;42.708;23.278;2022-11-02T08:51:45;50549.13;;;16.36;72.04
21879;BME280;27908;42.708;23.278;2022-11-02T08:54:11;50954.22;;;16.48;70.73
21879;BME280;27908;42.708;23.278;2022-11-02T08:56:37;50999.63;;;16.57;70.34
21879;BME280;27908;42.708;23.278;2022-11-02T08:59:02;51127.94;;;16.78;70.09
21879;BME280;27908;42.708;23.278;2022-11-02T09:01:27;51707.75;;;16.84;67.72
21879;BME280;27908;42.708;23.278;2022-11-02T09:03:53;51743.63;;;17.03;68.20
21879;BME280;27908;42.708;23.278;2022-11-02T09:06:18;52104.28;;;17.07;66.39
21879;BME280;27908;42.708;23.278;2022-11-02T09:08:44;52436.94;;;17.30;65.47
21879;BME280;27908;42.708;23.278;2022-11-02T09:11:09;52376.72;;;17.44;65.84
21879;BME280;27908;42.708;23.278;2022-11-02T09:13:36;52289.63;;;17.53;65.84
21879;BME280;27908;42.708;23.278;2022-11-02T09:16:02;52218.94;;;17.94;65.15
21879;BME280;27908;42.708;23.278;2022-11-02T09:18:28;52654.56;;;18.16;62.45
21879;BME280;27908;42.708;23.278;2022-11-02T09:20:53;52837.91;;;18.32;62.41
21879;BME280;27908;42.708;23.278;2022-11-02T09:23:19;53110.56;;;18.52;60.85
21879;BME280;27908;42.708;23.278;2022-11-02T09:25:45;53548.28;;;18.52;60.26
21879;BME280;27908;42.708;23.278;2022-11-02T09:28:10;53886.22;;;18.86;59.31
21879;BME280;27908;42.708;23.278;2022-11-02T09:30:37;54183.97;;;18.99;58.97
21879;BME280;27908;42.708;23.278;2022-11-02T09:33:03;54492.59;;;19.13;57.44
21879;BME280;27908;42.708;23.278;2022-11-02T09:35:32;54511.81;;;19.37;57.30
21879;BME280;27908;42.708;23.278;2022-11-02T09:37:58;54511.31;;;19.63;57.07
21879;BME280;27908;42.708;23.278;2022-11-02T09:40:26;54518.03;;;19.85;57.00
21879;BME280;27908;42.708;23.278;2022-11-02T09:45:23;54613.63;;;20.23;55.74
21879;BME280;27908;42.708;23.278;2022-11-02T09:48:01;55201.09;;;20.53;53.78
21879;BME280;27908;42.708;23.278;2022-11-02T09:50:39;55576.91;;;20.74;53.32
21879;BME280;27908;42.708;23.278;2022-11-02T09:53:08;55777.00;;;20.93;53.59
21879;BME280;27908;42.708;23.278;2022-11-02T09:55:36;55991.63;;;21.15;53.34
21879;BME280;27908;42.708;23.278;2022-11-02T09:58:11;56481.13;;;21.36;51.85
21879;BME280;27908;42.708;23.278;2022-11-02T10:00:39;57068.84;;;21.36;50.79
21879;BME280;27908;42.708;23.278;2022-11-02T10:03:38;57257.75;;;21.49;51.09
21879;BME280;27908;42.708;23.278;2022-11-02T10:06:18;57338.28;;;21.77;50.51
21879;BME280;27908;42.708;23.278;2022-11-02T10:11:52;57410.66;;;22.61;49.82
21879;BME280;27908;42.708;23.278;2022-11-02T10:14:34;57993.38;;;22.90;47.28
21879;BME280;27908;42.708;23.278;2022-11-02T10:17:13;57964.41;;;23.25;47.77
21879;BME280;27908;42.708;23.278;2022-11-02T10:19:45;58197.00;;;23.60;46.34
21879;BME280;27908;42.708;23.278;2022-11-02T10:22:14;58549.75;;;23.43;45.80
21879;BME280;27908;42.708;23.278;2022-11-02T10:27:14;58693.22;;;23.73;45.08
21879;BME280;27908;42.708;23.278;2022-11-02T10:32:18;58672.19;;;24.55;44.41
21879;BME280;27908;42.708;23.278;2022-11-02T10:34:44;58932.94;;;24.72;42.92
21879;BME280;27908;42.708;23.278;2022-11-02T10:42:43;59381.25;;;25.02;41.43
21879;BME280;27908;42.708;23.278;2022-11-02T10:48:08;59332.16;;;25.73;40.13
21879;BME280;27908;42.708;23.278;2022-11-02T10:50:43;59435.13;;;25.88;39.42
21879;BME280;27908;42.708;23.278;2022-11-02T10:53:18;59612.34;;;25.85;39.26
21879;BME280;27908;42.708;23.278;2022-11-02T10:55:50;59818.06;;;25.84;38.20
21879;BME280;27908;42.708;23.278;2022-11-02T10:58:20;59730.16;;;26.15;37.67
21879;BME280;27908;42.708;23.278;2022-11-02T11:01:05;59947.25;;;25.99;37.31
21879;BME280;27908;42.708;23.278;2022-11-02T11:03:31;59940.66;;;26.38;36.26
21879;BME280;27908;42.708;23.278;2022-11-02T11:06:01;60135.59;;;26.32;35.73
21879;BME280;27908;42.708;23.278;2022-11-02T11:08:42;60033.19;;;26.55;37.55
21879;BME280;27908;42.708;23.278;2022-11-02T11:11:20;60390.25;;;26.54;33.56
21879;BME280;27908;42.708;23.278;2022-11-02T11:14:01;60368.44;;;26.59;35.04
21879;BME280;27908;42.708;23.278;2022-11-02T11:16:37;60363.84;;;26.70;35.14
21879;BME280;27908;42.708;23.278;2022-11-02T11:19:06;60391.69;;;26.75;36.01
21879;BME280;27908;42.708;23.278;2022-11-02T11:21:40;60707.25;;;26.45;34.32
21879;BME280;27908;42.708;23.278;2022-11-02T11:24:27;60666.69;;;26.75;33.96
21879;BME280;27908;42.708;23.278;2022-11-02T11:29:59;60904.63;;;26.33;33.72
21879;BME280;27908;42.708;23.278;2022-11-02T11:32:26;60858.03;;;26.41;34.20
21879;BME280;27908;42.708;23.278;2022-11-02T11:35:04;60980.38;;;26.41;33.16
21879;BME280;27908;42.708;23.278;2022-11-02T11:37:31;61109.38;;;25.97;33.71
21879;BME280;27908;42.708;23.278;2022-11-02T11:40:00;61153.31;;;26.41;32.42
21879;BME280;27908;42.708;23.278;2022-11-02T11:42:29;61192.66;;;26.47;31.44
21879;BME280;27908;42.708;23.278;2022-11-02T11:45:04;61175.97;;;26.53;32.40
21879;BME280;27908;42.708;23.278;2022-11-02T11:47:34;61216.44;;;26.73;31.32
21879;BME280;27908;42.708;23.278;2022-11-02T11:50:05;61325.47;;;26.46;31.89
21879;BME280;27908;42.708;23.278;2022-11-02T11:52:32;61367.28;;;26.38;31.06
21879;BME280;27908;42.708;23.278;2022-11-02T11:54:59;61357.50;;;26.20;31.80
21879;BME280;27908;42.708;23.278;2022-11-02T11:57:33;61432.94;;;26.25;31.74
21879;BME280;27908;42.708;23.278;2022-11-02T12:00:00;61462.81;;;26.32;31.26
21879;BME280;27908;42.708;23.278;2022-11-02T12:02:33;61454.50;;;26.23;31.81
21879;BME280;27908;42.708;23.278;2022-11-02T12:05:16;61474.09;;;26.35;31.87
21879;BME280;27908;42.708;23.278;2022-11-02T12:13:23;61452.56;;;26.53;32.14
21879;BME280;27908;42.708;23.278;2022-11-02T12:16:08;61428.38;;;26.71;32.24
21879;BME280;27908;42.708;23.278;2022-11-02T12:18:50;61447.66;;;26.56;31.79
21879;BME280;27908;42.708;23.278;2022-11-02T12:21:35;61489.00;;;26.55;32.56
21879;BME280;27908;42.708;23.278;2022-11-02T12:24:06;61502.91;;;26.59;32.00
21879;BME280;27908;42.708;23.278;2022-11-02T12:26:49;61459.13;;;26.65;32.36
21879;BME280;27908;42.708;23.278;2022-11-02T12:31:51;61502.72;;;26.61;31.60
21879;BME280;27908;42.708;23.278;2022-11-02T12:34:51;61569.69;;;26.45;32.87
21879;BME280;27908;42.708;23.278;2022-11-02T12:37:51;61581.09;;;26.38;32.54
21879;BME280;27908;42.708;23.278;2022-11-02T12:45:45;61607.06;;;26.32;32.63
21879;BME280;27908;42.708;23.278;2022-11-02T12:48:33;61721.66;;;26.21;31.80
21879;BME280;27908;42.708;23.278;2022-11-02T12:51:10;61711.31;;;25.93;32.40
21879;BME280;27908;42.708;23.278;2022-11-02T12:53:49;61704.56;;;26.09;32.43
21879;BME280;27908;42.708;23.278;2022-11-02T12:56:26;61704.44;;;26.12;32.30
21879;BME280;27908;42.708;23.278;2022-11-02T12:58:54;61762.59;;;25.92;32.19
21879;BME280;27908;42.708;23.278;2022-11-02T13:06:39;61798.72;;;25.81;32.49
21879;BME280;27908;42.708;23.278;2022-11-02T13:11:46;61869.94;;;25.69;32.62
21879;BME280;27908;42.708;23.278;2022-11-02T13:14:19;61818.84;;;25.67;32.81
21879;BME280;27908;42.708;23.278;2022-11-02T13:16:56;61836.13;;;25.66;32.38
21879;BME280;27908;42.708;23.278;2022-11-02T13:19:34;61829.88;;;25.75;33.02
21879;BME280;27908;42.708;23.278;2022-11-02T13:22:02;61900.97;;;25.55;33.04
21879;BME280;27908;42.708;23.278;2022-11-02T13:24:41;61901.00;;;25.45;33.22
21879;BME280;27908;42.708;23.278;2022-11-02T13:27:24;61847.41;;;25.51;33.02
21879;BME280;27908;42.708;23.278;2022-11-02T13:29:51;61905.00;;;25.38;33.59
21879;BME280;27908;42.708;23.278;2022-11-02T13:32:36;61845.75;;;25.34;33.62
21879;BME280;27908;42.708;23.278;2022-11-02T13:35:21;61917.16;;;25.17;32.84
21879;BME280;27908;42.708;23.278;2022-11-02T13:38:04;61933.44;;;25.15;33.60
21879;BME280;27908;42.708;23.278;2022-11-02T13:40:41;61963.44;;;24.90;33.80
21879;BME280;27908;42.708;23.278;2022-11-02T13:48:50;62063.53;;;24.70;33.78
21879;BME280;27908;42.708;23.278;2022-11-02T13:51:26;62042.19;;;24.60;34.02
21879;BME280;27908;42.708;23.278;2022-11-02T13:53:59;62062.78;;;24.54;34.06
21879;BME280;27908;42.708;23.278;2022-11-02T13:56:27;62047.28;;;24.31;34.25
21879;BME280;27908;42.708;23.278;2022-11-02T13:59:26;62079.16;;;24.29;34.46
21879;BME280;27908;42.708;23.278;2022-11-02T14:01:52;62051.25;;;24.25;34.94
21879;BME280;27908;42.708;23.278;2022-11-02T14:04:19;62060.91;;;24.08;34.34
21879;BME280;27908;42.708;23.278;2022-11-02T14:07:00;62096.09;;;23.92;35.05
21879;BME280;27908;42.708;23.278;2022-11-02T14:09:39;62000.25;;;23.92;35.26
21879;BME280;27908;42.708;23.278;2022-11-02T14:18:08;62042.03;;;23.69;35.47
21879;BME280;27908;42.708;23.278;2022-11-02T14:20:40;62113.00;;;23.64;36.00
21879;BME280;27908;42.708;23.278;2022-11-02T14:25:57;62159.19;;;23.56;36.12
21879;BME280;27908;42.708;23.278;2022-11-02T14:49:33;62142.25;;;22.59;38.15
21879;BME280;27908;42.708;23.278;2022-11-02T14:52:01;62199.59;;;22.54;38.53
21879;BME280;27908;42.708;23.278;2022-11-02T14:54:31;62164.84;;;22.53;38.33
21879;BME280;27908;42.708;23.278;2022-11-02T14:57:02;62179.44;;;22.52;38.39
21879;BME280;27908;42.708;23.278;2022-11-02T14:59:31;62207.44;;;22.42;38.72
21879;BME280;27908;42.708;23.278;2022-11-02T15:02:02;62231.13;;;22.34;38.41
21879;BME280;27908;42.708;23.278;2022-11-02T15:04:30;62196.00;;;22.17;38.82
21879;BME280;27908;42.708;23.278;2022-11-02T15:06:59;62211.00;;;22.07;39.11
21879;BME280;27908;42.708;23.278;2022-11-02T15:09:58;62231.75;;;21.94;39.06
21879;BME280;27908;42.708;23.278;2022-11-02T15:12:39;62258.09;;;21.84;38.99
21879;BME280;27908;42.708;23.278;2022-11-02T15:15:28;62211.22;;;21.76;39.35
21879;BME280;27908;42.708;23.278;2022-11-02T15:25:35;62320.63;;;21.38;40.01
21879;BME280;27908;42.708;23.278;2022-11-02T15:28:12;62266.16;;;21.25;40.54
21879;BME280;27908;42.708;23.278;2022-11-02T15:30:44;62252.97;;;21.17;40.66
21879;BME280;27908;42.708;23.278;2022-11-02T15:33:18;62301.06;;;20.93;41.11
21879;BME280;27908;42.708;23.278;2022-11-02T15:35:45;62317.66;;;20.79;41.76
21879;BME280;27908;42.708;23.278;2022-11-02T15:38:12;62308.16;;;20.26;42.80
21879;BME280;27908;42.708;23.278;2022-11-02T15:40:52;62314.94;;;20.25;43.51
21879;BME280;27908;42.708;23.278;2022-11-02T15:46:08;62297.72;;;19.85;44.79
21879;BME280;27908;42.708;23.278;2022-11-02T15:51:31;62308.91;;;19.45;46.06
21879;BME280;27908;42.708;23.278;2022-11-02T16:00:04;62227.66;;;19.03;47.20
21879;BME280;27908;42.708;23.278;2022-11-02T16:02:51;62251.03;;;18.83;47.99
21879;BME280;27908;42.708;23.278;2022-11-02T16:05:24;62253.63;;;18.83;48.72
21879;BME280;27908;42.708;23.278;2022-11-02T16:07:53;62268.53;;;18.70;48.50
21879;BME280;27908;42.708;23.278;2022-11-02T16:10:31;62319.47;;;18.41;48.50
21879;BME280;27908;42.708;23.278;2022-11-02T16:12:58;62272.88;;;18.46;48.85
21879;BME280;27908;42.708;23.278;2022-11-02T16:15:24;62270.84;;;18.29;48.89